sensor_id;sensor_type;location;lat;lon;timestamp;P1;durP1;ratioP1;P2;durP2;ratioP2
74788;SDS011;63313;48.258;12.518;2023-10-19T04:25:42;36.13;;;20.63;;
74788;SDS011;63313;48.258;12.518;2023-10-19T04:31:09;41.78;;;21.32;;
74788;SDS011;63313;48.258;12.518;2023-10-19T04:36:36;32.17;;;20.9;;
74788;SDS011;63313;48.258;12.518;2023-10-19T04:42:03;34.6;;;21.32;;
74788;SDS011;63313;48.258;12.518;2023-10-19T04:47:30;31.589999999999996;;;20.03;;
74788;SDS011;63313;48.258;12.518;2023-10-19T04:52:57;37.730000000000004;;;22.910000000000004;;
74788;SDS011;63313;48.258;12.518;2023-10-19T04:58:24;35.67999999999999;;;22.29;;
74788;SDS011;63313;48.258;12.518;2023-10-19T05:03:51;35.95;;;22.36;;
74788;SDS011;63313;48.258;12.518;2023-10-19T05:09:18;39.46;;;23.4;;
74788;SDS011;63313;48.258;12.518;2023-10-19T05:14:45;34.78;;;21.979999999999997;;
74788;SDS011;63313;48.258;12.518;2023-10-19T05:20:12;40.33;;;23.169999999999998;;
74788;SDS011;63313;48.258;12.518;2023-10-19T05:25:39;36.88000000000001;;;22.84;;
74788;SDS011;63313;48.258;12.518;2023-10-19T05:31:06;38.11;;;23.71;;
74788;SDS011;63313;48.258;12.518;2023-10-19T05:36:33;38.459999999999994;;;23.23;;
74788;SDS011;63313;48.258;12.518;2023-10-19T05:42:00;36.449999999999996;;;21.94;;
74788;SDS011;63313;48.258;12.518;2023-10-19T05:47:28;39.22;;;22.27;;
74788;SDS011;63313;48.258;12.518;2023-10-19T05:52:55;40.29;;;23.21;;
74788;SDS011;63313;48.258;12.518;2023-10-19T05:58:22;36.36;;;22.839999999999996;;
74788;SDS011;63313;48.258;12.518;2023-10-19T06:03:49;39.57;;;23.119999999999997;;
74788;SDS011;63313;48.258;12.518;2023-10-19T06:09:16;39.220000000000006;;;24.32;;
74788;SDS011;63313;48.258;12.518;2023-10-19T06:14:43;41.11;;;25.15;;
74788;SDS011;63313;48.258;12.518;2023-10-19T06:20:11;39.269999999999996;;;24.419999999999995;;
74788;SDS011;63313;48.258;12.518;2023-10-19T06:25:38;42.3;;;25.65;;
74788;SDS011;63313;48.258;12.518;2023-10-19T06:31:06;40.980000000000004;;;25.360000000000003;;
74788;SDS011;63313;48.258;12.518;2023-10-19T06:36:33;40.010000000000005;;;24.55;;
74788;SDS011;63313;48.258;12.518;2023-10-19T06:42:00;45.1;;;26.28;;
74788;SDS011;63313;48.258;12.518;2023-10-19T06:47:27;38.839999999999996;;;25.02;;
74788;SDS011;63313;48.258;12.518;2023-10-19T06:52:54;46.75;;;26.860000000000003;;
74788;SDS011;63313;48.258;12.518;2023-10-19T06:58:21;50.879999999999995;;;28.389999999999997;;
74788;SDS011;63313;48.258;12.518;2023-10-19T07:03:48;57.879999999999995;;;32.440000000000005;;
74788;SDS011;63313;48.258;12.518;2023-10-19T07:09:15;51.09;;;28.620000000000005;;
74788;SDS011;63313;48.258;12.518;2023-10-19T07:14:43;51.27;;;28.78000000000001;;
74788;SDS011;63313;48.258;12.518;2023-10-19T07:20:11;51.910000000000004;;;27.619999999999997;;
74788;SDS011;63313;48.258;12.518;2023-10-19T07:25:38;44.87;;;26.7;;
74788;SDS011;63313;48.258;12.518;2023-10-19T07:31:05;48.2;;;26.74;;
74788;SDS011;63313;48.258;12.518;2023-10-19T07:36:33;51.25999999999999;;;27.990000000000002;;
74788;SDS011;63313;48.258;12.518;2023-10-19T07:42:00;47.44;;;26.73;;
74788;SDS011;63313;48.258;12.518;2023-10-19T07:47:27;40.81;;;25.77;;
74788;SDS011;63313;48.258;12.518;2023-10-19T07:52:54;43.95;;;25.47;;
74788;SDS011;63313;48.258;12.518;2023-10-19T07:58:21;40.15;;;24.999999999999996;;
74788;SDS011;63313;48.258;12.518;2023-10-19T08:03:48;42.6;;;25.6;;
74788;SDS011;63313;48.258;12.518;2023-10-19T08:09:15;39.08;;;25.020000000000003;;
74788;SDS011;63313;48.258;12.518;2023-10-19T08:14:42;40.85;;;26.02;;
74788;SDS011;63313;48.258;12.518;2023-10-19T08:20:11;40.550000000000004;;;24.44;;
74788;SDS011;63313;48.258;12.518;2023-10-19T08:25:38;45.489999999999995;;;26.1;;
74788;SDS011;63313;48.258;12.518;2023-10-19T08:31:07;42.239999999999995;;;25.939999999999998;;
74788;SDS011;63313;48.258;12.518;2023-10-19T08:36:34;46.45;;;27.3;;
74788;SDS011;63313;48.258;12.518;2023-10-19T08:42:02;44.68;;;27.98;;
74788;SDS011;63313;48.258;12.518;2023-10-19T08:47:29;43.17;;;25.71;;
74788;SDS011;63313;48.258;12.518;2023-10-19T08:52:57;38.53;;;25.09;;
74788;SDS011;63313;48.258;12.518;2023-10-19T08:58:24;35.709999999999994;;;22.96;;
74788;SDS011;63313;48.258;12.518;2023-10-19T09:03:52;37.97;;;22.479999999999997;;
74788;SDS011;63313;48.258;12.518;2023-10-19T09:09:19;40.339999999999996;;;23.779999999999998;;
74788;SDS011;63313;48.258;12.518;2023-10-19T09:14:46;39.019999999999996;;;23.85;;
74788;SDS011;63313;48.258;12.518;2023-10-19T09:20:13;32.6;;;21.639999999999997;;
74788;SDS011;63313;48.258;12.518;2023-10-19T09:25:40;34.96;;;22.04;;
74788;SDS011;63313;48.258;12.518;2023-10-19T09:31:07;36.290000000000006;;;22.889999999999997;;
74788;SDS011;63313;48.258;12.518;2023-10-19T09:36:34;31.459999999999997;;;21.4;;
74788;SDS011;63313;48.258;12.518;2023-10-19T09:42:02;39.19;;;22.93;;
74788;SDS011;63313;48.258;12.518;2023-10-19T09:47:29;38.31;;;22.34;;
74788;SDS011;63313;48.258;12.518;2023-10-19T09:52:56;37.239999999999995;;;21.4;;
74788;SDS011;63313;48.258;12.518;2023-10-19T09:58:24;36.760000000000005;;;21.48;;
74788;SDS011;63313;48.258;12.518;2023-10-19T10:03:53;30.619999999999997;;;19.47;;
74788;SDS011;63313;48.258;12.518;2023-10-19T10:09:20;29.8;;;18.89;;
74788;SDS011;63313;48.258;12.518;2023-10-19T10:14:55;27.810000000000002;;;18.79;;
74788;SDS011;63313;48.258;12.518;2023-10-19T10:20:30;26.4;;;18.2;;
74788;SDS011;63313;48.258;12.518;2023-10-19T10:25:57;26.97;;;17.85;;
74788;SDS011;63313;48.258;12.518;2023-10-19T10:31:24;30.380000000000003;;;19.9;;
74788;SDS011;63313;48.258;12.518;2023-10-19T10:36:59;25.07;;;17.65;;
74788;SDS011;63313;48.258;12.518;2023-10-19T10:42:26;23.919999999999998;;;16.0;;
74788;SDS011;63313;48.258;12.518;2023-10-19T10:47:53;24.660000000000004;;;16.380000000000003;;
74788;SDS011;63313;48.258;12.518;2023-10-19T10:53:23;28.439999999999998;;;17.84;;
74788;SDS011;63313;48.258;12.518;2023-10-19T10:58:50;28.98;;;19.16;;
74788;SDS011;63313;48.258;12.518;2023-10-19T11:04:17;28.22;;;19.119999999999997;;
74788;SDS011;63313;48.258;12.518;2023-10-19T11:09:44;24.01;;;16.59;;
74788;SDS011;63313;48.258;12.518;2023-10-19T11:15:11;21.950000000000003;;;14.99;;
74788;SDS011;63313;48.258;12.518;2023-10-19T11:20:38;17.78;;;13.669999999999998;;
74788;SDS011;63313;48.258;12.518;2023-10-19T11:26:05;24.630000000000003;;;14.55;;
74788;SDS011;63313;48.258;12.518;2023-10-19T11:31:32;22.31;;;13.8;;
74788;SDS011;63313;48.258;12.518;2023-10-19T11:36:59;19.580000000000002;;;13.709999999999999;;
74788;SDS011;63313;48.258;12.518;2023-10-19T11:42:26;22.729999999999997;;;14.709999999999999;;
74788;SDS011;63313;48.258;12.518;2023-10-19T11:47:53;19.96;;;14.16;;
74788;SDS011;63313;48.258;12.518;2023-10-19T11:53:20;21.05;;;13.7;;
74788;SDS011;63313;48.258;12.518;2023-10-19T11:58:47;26.610000000000003;;;14.439999999999998;;
74788;SDS011;63313;48.258;12.518;2023-10-19T12:04:14;21.16;;;14.930000000000001;;
74788;SDS011;63313;48.258;12.518;2023-10-19T12:09:41;20.95;;;14.09;;
74788;SDS011;63313;48.258;12.518;2023-10-19T12:15:09;19.779999999999994;;;14.51;;
74788;SDS011;63313;48.258;12.518;2023-10-19T12:20:36;21.630000000000003;;;14.73;;
74788;SDS011;63313;48.258;12.518;2023-10-19T12:26:03;21.47;;;14.459999999999999;;
74788;SDS011;63313;48.258;12.518;2023-10-19T12:31:30;20.179999999999996;;;13.74;;
74788;SDS011;63313;48.258;12.518;2023-10-19T12:36:57;25.21;;;13.539999999999997;;
74788;SDS011;63313;48.258;12.518;2023-10-19T12:42:24;22.290000000000003;;;13.739999999999998;;
74788;SDS011;63313;48.258;12.518;2023-10-19T12:47:51;22.639999999999997;;;13.65;;
74788;SDS011;63313;48.258;12.518;2023-10-19T12:53:18;18.630000000000003;;;11.84;;
74788;SDS011;63313;48.258;12.518;2023-10-19T12:58:45;16.57;;;11.86;;
74788;SDS011;63313;48.258;12.518;2023-10-19T13:04:12;16.330000000000002;;;11.28;;
74788;SDS011;63313;48.258;12.518;2023-10-19T13:09:39;16.119999999999997;;;10.929999999999998;;
74788;SDS011;63313;48.258;12.518;2023-10-19T13:15:07;13.63;;;9.84;;
74788;SDS011;63313;48.258;12.518;2023-10-19T13:20:34;11.479999999999999;;;9.180000000000001;;
74788;SDS011;63313;48.258;12.518;2023-10-19T13:26:01;12.47;;;8.92;;
74788;SDS011;63313;48.258;12.518;2023-10-19T13:31:28;11.64;;;8.61;;
74788;SDS011;63313;48.258;12.518;2023-10-19T13:36:56;12.28;;;8.14;;
74788;SDS011;63313;48.258;12.518;2023-10-19T13:42:23;13.36;;;7.8199999999999985;;
74788;SDS011;63313;48.258;12.518;2023-10-19T13:47:50;8.6;;;6.8;;
74788;SDS011;63313;48.258;12.518;2023-10-19T13:53:17;9.83;;;6.589999999999999;;
74788;SDS011;63313;48.258;12.518;2023-10-19T13:58:44;9.66;;;6.859999999999999;;
74788;SDS011;63313;48.258;12.518;2023-10-19T14:04:11;9.319999999999999;;;6.789999999999999;;
74788;SDS011;63313;48.258;12.518;2023-10-19T14:09:38;9.629999999999999;;;7.4;;
74788;SDS011;63313;48.258;12.518;2023-10-19T14:15:14;15.819999999999999;;;7.95;;
74788;SDS011;63313;48.258;12.518;2023-10-19T14:20:43;13.11;;;8.170000000000002;;
74788;SDS011;63313;48.258;12.518;2023-10-19T14:26:12;10.349999999999998;;;7.76;;
74788;SDS011;63313;48.258;12.518;2023-10-19T14:31:45;17.19;;;9.46;;
74788;SDS011;63313;48.258;12.518;2023-10-19T14:37:23;11.5;;;8.15;;
74788;SDS011;63313;48.258;12.518;2023-10-19T14:43:36;11.16;;;8.46;;
74788;SDS011;63313;48.258;12.518;2023-10-19T14:49:04;17.130000000000003;;;8.989999999999998;;
74788;SDS011;63313;48.258;12.518;2023-10-19T14:54:31;11.73;;;8.530000000000001;;
74788;SDS011;63313;48.258;12.518;2023-10-19T14:59:58;15.180000000000001;;;9.45;;
74788;SDS011;63313;48.258;12.518;2023-10-19T15:05:26;14.11;;;8.65;;
74788;SDS011;63313;48.258;12.518;2023-10-19T15:10:53;12.290000000000001;;;8.239999999999998;;
74788;SDS011;63313;48.258;12.518;2023-10-19T15:16:20;12.309999999999999;;;8.84;;
74788;SDS011;63313;48.258;12.518;2023-10-19T15:21:48;25.85;;;16.35;;
74788;SDS011;63313;48.258;12.518;2023-10-19T15:27:15;24.09;;;14.760000000000002;;
74788;SDS011;63313;48.258;12.518;2023-10-19T15:32:42;19.869999999999997;;;11.86;;
74788;SDS011;63313;48.258;12.518;2023-10-19T15:38:09;24.700000000000003;;;14.030000000000001;;
74788;SDS011;63313;48.258;12.518;2023-10-19T15:43:36;20.91;;;13.120000000000001;;
74788;SDS011;63313;48.258;12.518;2023-10-19T15:49:03;15.959999999999999;;;12.95;;
74788;SDS011;63313;48.258;12.518;2023-10-19T15:54:30;21.279999999999998;;;15.74;;
74788;SDS011;63313;48.258;12.518;2023-10-19T15:59:57;36.59;;;22.509999999999998;;
74788;SDS011;63313;48.258;12.518;2023-10-19T16:05:24;33.92;;;20.68;;
74788;SDS011;63313;48.258;12.518;2023-10-19T16:10:51;29.919999999999998;;;18.8;;
74788;SDS011;63313;48.258;12.518;2023-10-19T16:16:18;24.330000000000002;;;17.19;;
74788;SDS011;63313;48.258;12.518;2023-10-19T16:21:46;29.910000000000004;;;20.95;;
74788;SDS011;63313;48.258;12.518;2023-10-19T16:27:18;27.869999999999997;;;19.82;;
74788;SDS011;63313;48.258;12.518;2023-10-19T16:35:45;28.2;;;18.41;;
74788;SDS011;63313;48.258;12.518;2023-10-19T16:42:01;28.860000000000003;;;20.439999999999998;;
74788;SDS011;63313;48.258;12.518;2023-10-19T16:47:52;27.310000000000002;;;19.77;;
74788;SDS011;63313;48.258;12.518;2023-10-19T16:53:33;41.73;;;25.330000000000002;;
